sensor_id;sensor_type;location;lat;lon;timestamp;P1;durP1;ratioP1;P2;durP2;ratioP2
19151;SDS011;9708;53.114;9.388;2022-10-16T03:47:46;0.97;;;0.77;;
19151;SDS011;9708;53.114;9.388;2022-10-16T03:50:13;2.47;;;0.80;;
19151;SDS011;9708;53.114;9.388;2022-10-16T03:52:40;1.30;;;0.80;;
19151;SDS011;9708;53.114;9.388;2022-10-16T03:55:07;1.90;;;1.40;;
19151;SDS011;9708;53.114;9.388;2022-10-16T03:57:34;2.70;;;0.70;;
19151;SDS011;9708;53.114;9.388;2022-10-16T04:00:01;0.97;;;0.90;;
19151;SDS011;9708;53.114;9.388;2022-10-16T04:02:28;1.33;;;1.13;;
19151;SDS011;9708;53.114;9.388;2022-10-16T04:04:56;2.13;;;1.37;;
19151;SDS011;9708;53.114;9.388;2022-10-16T04:07:22;1.90;;;0.90;;
19151;SDS011;9708;53.114;9.388;2022-10-16T04:09:49;1.20;;;0.70;;
19151;SDS011;9708;53.114;9.388;2022-10-16T04:12:17;2.00;;;1.07;;
19151;SDS011;9708;53.114;9.388;2022-10-16T04:14:43;1.73;;;0.90;;
19151;SDS011;9708;53.114;9.388;2022-10-16T04:17:10;0.80;;;0.80;;
19151;SDS011;9708;53.114;9.388;2022-10-16T04:19:37;1.37;;;1.27;;
19151;SDS011;9708;53.114;9.388;2022-10-16T04:22:05;1.57;;;1.10;;
19151;SDS011;9708;53.114;9.388;2022-10-16T04:24:32;0.70;;;0.70;;
19151;SDS011;9708;53.114;9.388;2022-10-16T04:26:58;1.07;;;0.90;;
19151;SDS011;9708;53.114;9.388;2022-10-16T04:29:25;2.00;;;0.90;;
19151;SDS011;9708;53.114;9.388;2022-10-16T04:31:52;2.13;;;1.50;;
19151;SDS011;9708;53.114;9.388;2022-10-16T04:34:19;2.17;;;1.03;;
19151;SDS011;9708;53.114;9.388;2022-10-16T04:36:46;0.90;;;0.80;;
19151;SDS011;9708;53.114;9.388;2022-10-16T04:39:15;2.57;;;1.13;;
19151;SDS011;9708;53.114;9.388;2022-10-16T04:41:42;2.30;;;0.90;;
19151;SDS011;9708;53.114;9.388;2022-10-16T04:44:09;1.07;;;1.07;;
19151;SDS011;9708;53.114;9.388;2022-10-16T04:46:35;2.23;;;2.03;;
19151;SDS011;9708;53.114;9.388;2022-10-16T04:49:02;0.80;;;0.80;;
19151;SDS011;9708;53.114;9.388;2022-10-16T04:51:29;0.73;;;0.73;;
19151;SDS011;9708;53.114;9.388;2022-10-16T04:53:56;1.07;;;0.87;;
19151;SDS011;9708;53.114;9.388;2022-10-16T04:56:24;0.80;;;0.80;;
19151;SDS011;9708;53.114;9.388;2022-10-16T04:58:51;3.00;;;0.80;;
19151;SDS011;9708;53.114;9.388;2022-10-16T05:01:17;1.00;;;0.90;;
19151;SDS011;9708;53.114;9.388;2022-10-16T05:03:44;1.17;;;0.90;;
19151;SDS011;9708;53.114;9.388;2022-10-16T05:06:11;1.43;;;0.80;;
19151;SDS011;9708;53.114;9.388;2022-10-16T05:08:38;1.43;;;0.87;;
19151;SDS011;9708;53.114;9.388;2022-10-16T05:11:04;1.07;;;0.80;;
19151;SDS011;9708;53.114;9.388;2022-10-16T05:13:32;0.80;;;0.80;;
19151;SDS011;9708;53.114;9.388;2022-10-16T05:15:59;1.53;;;1.33;;
19151;SDS011;9708;53.114;9.388;2022-10-16T05:18:26;2.40;;;0.80;;
19151;SDS011;9708;53.114;9.388;2022-10-16T05:20:52;0.70;;;0.70;;
19151;SDS011;9708;53.114;9.388;2022-10-16T05:23:19;1.30;;;1.20;;
19151;SDS011;9708;53.114;9.388;2022-10-16T05:25:51;1.40;;;1.10;;
19151;SDS011;9708;53.114;9.388;2022-10-16T05:28:19;0.77;;;0.77;;
19151;SDS011;9708;53.114;9.388;2022-10-16T05:30:47;0.90;;;0.70;;
19151;SDS011;9708;53.114;9.388;2022-10-16T05:33:14;1.33;;;0.97;;
19151;SDS011;9708;53.114;9.388;2022-10-16T05:35:41;1.27;;;1.00;;
19151;SDS011;9708;53.114;9.388;2022-10-16T05:38:08;3.10;;;1.40;;
19151;SDS011;9708;53.114;9.388;2022-10-16T05:40:35;1.60;;;1.00;;
19151;SDS011;9708;53.114;9.388;2022-10-16T05:43:02;1.57;;;1.20;;
19151;SDS011;9708;53.114;9.388;2022-10-16T05:45:29;1.37;;;1.27;;
19151;SDS011;9708;53.114;9.388;2022-10-16T05:48:01;4.10;;;2.13;;
19151;SDS011;9708;53.114;9.388;2022-10-16T05:50:28;1.97;;;1.23;;
19151;SDS011;9708;53.114;9.388;2022-10-16T05:52:55;1.63;;;1.03;;
19151;SDS011;9708;53.114;9.388;2022-10-16T05:55:23;1.63;;;1.53;;
19151;SDS011;9708;53.114;9.388;2022-10-16T05:57:49;0.90;;;0.90;;
19151;SDS011;9708;53.114;9.388;2022-10-16T06:00:16;1.20;;;1.10;;
19151;SDS011;9708;53.114;9.388;2022-10-16T06:02:43;1.50;;;1.00;;
19151;SDS011;9708;53.114;9.388;2022-10-16T06:05:11;1.40;;;1.10;;
19151;SDS011;9708;53.114;9.388;2022-10-16T06:07:38;1.63;;;1.13;;
19151;SDS011;9708;53.114;9.388;2022-10-16T06:10:05;2.93;;;1.10;;
19151;SDS011;9708;53.114;9.388;2022-10-16T06:12:33;2.27;;;1.03;;
19151;SDS011;9708;53.114;9.388;2022-10-16T06:15:00;2.97;;;1.50;;
19151;SDS011;9708;53.114;9.388;2022-10-16T06:17:27;3.90;;;1.97;;
19151;SDS011;9708;53.114;9.388;2022-10-16T06:19:54;0.87;;;0.87;;
19151;SDS011;9708;53.114;9.388;2022-10-16T06:22:22;2.17;;;1.77;;
19151;SDS011;9708;53.114;9.388;2022-10-16T06:24:48;1.27;;;1.10;;
19151;SDS011;9708;53.114;9.388;2022-10-16T06:27:15;3.37;;;1.50;;
19151;SDS011;9708;53.114;9.388;2022-10-16T06:29:42;1.10;;;0.90;;
19151;SDS011;9708;53.114;9.388;2022-10-16T06:32:10;1.17;;;1.00;;
19151;SDS011;9708;53.114;9.388;2022-10-16T06:34:36;1.60;;;1.47;;
19151;SDS011;9708;53.114;9.388;2022-10-16T06:37:05;1.80;;;1.43;;
19151;SDS011;9708;53.114;9.388;2022-10-16T06:39:33;1.30;;;1.20;;
19151;SDS011;9708;53.114;9.388;2022-10-16T06:42:00;1.97;;;1.20;;
19151;SDS011;9708;53.114;9.388;2022-10-16T06:44:26;0.97;;;0.83;;
19151;SDS011;9708;53.114;9.388;2022-10-16T06:46:53;1.37;;;1.10;;
19151;SDS011;9708;53.114;9.388;2022-10-16T06:49:20;1.23;;;1.13;;
19151;SDS011;9708;53.114;9.388;2022-10-16T06:51:47;2.20;;;1.40;;
19151;SDS011;9708;53.114;9.388;2022-10-16T06:54:14;2.13;;;1.47;;
19151;SDS011;9708;53.114;9.388;2022-10-16T06:56:44;2.57;;;1.00;;
19151;SDS011;9708;53.114;9.388;2022-10-16T06:59:10;1.40;;;0.80;;
19151;SDS011;9708;53.114;9.388;2022-10-16T07:01:37;3.30;;;2.13;;
19151;SDS011;9708;53.114;9.388;2022-10-16T07:04:04;0.90;;;0.90;;
19151;SDS011;9708;53.114;9.388;2022-10-16T07:06:32;1.33;;;1.23;;
19151;SDS011;9708;53.114;9.388;2022-10-16T07:09:00;1.37;;;0.90;;
19151;SDS011;9708;53.114;9.388;2022-10-16T07:11:29;0.80;;;0.80;;
19151;SDS011;9708;53.114;9.388;2022-10-16T07:13:57;8.93;;;1.90;;
19151;SDS011;9708;53.114;9.388;2022-10-16T07:16:25;0.98;;;0.90;;
19151;SDS011;9708;53.114;9.388;2022-10-16T07:18:53;1.25;;;1.15;;
19151;SDS011;9708;53.114;9.388;2022-10-16T07:21:23;0.85;;;0.70;;
19151;SDS011;9708;53.114;9.388;2022-10-16T07:23:51;1.35;;;0.63;;
19151;SDS011;9708;53.114;9.388;2022-10-16T07:26:19;1.90;;;1.05;;
19151;SDS011;9708;53.114;9.388;2022-10-16T07:28:46;0.82;;;0.80;;
19151;SDS011;9708;53.114;9.388;2022-10-16T07:31:15;0.95;;;0.82;;
19151;SDS011;9708;53.114;9.388;2022-10-16T07:33:43;1.17;;;1.08;;
19151;SDS011;9708;53.114;9.388;2022-10-16T07:36:12;0.60;;;0.60;;
19151;SDS011;9708;53.114;9.388;2022-10-16T07:38:40;0.80;;;0.80;;
19151;SDS011;9708;53.114;9.388;2022-10-16T07:41:09;1.30;;;0.90;;
19151;SDS011;9708;53.114;9.388;2022-10-16T07:43:37;1.30;;;0.90;;
19151;SDS011;9708;53.114;9.388;2022-10-16T07:46:04;1.08;;;0.90;;
19151;SDS011;9708;53.114;9.388;2022-10-16T07:48:33;1.00;;;1.00;;
19151;SDS011;9708;53.114;9.388;2022-10-16T07:51:01;1.65;;;1.08;;
19151;SDS011;9708;53.114;9.388;2022-10-16T07:53:29;0.68;;;0.68;;
19151;SDS011;9708;53.114;9.388;2022-10-16T07:55:57;1.40;;;1.00;;
19151;SDS011;9708;53.114;9.388;2022-10-16T07:58:25;0.95;;;0.85;;
19151;SDS011;9708;53.114;9.388;2022-10-16T08:00:52;1.13;;;0.90;;
19151;SDS011;9708;53.114;9.388;2022-10-16T08:03:18;1.02;;;0.70;;
19151;SDS011;9708;53.114;9.388;2022-10-16T08:05:47;1.65;;;0.90;;
19151;SDS011;9708;53.114;9.388;2022-10-16T08:08:14;0.57;;;0.57;;
19151;SDS011;9708;53.114;9.388;2022-10-16T08:10:42;1.10;;;0.68;;
19151;SDS011;9708;53.114;9.388;2022-10-16T08:13:09;0.60;;;0.60;;
19151;SDS011;9708;53.114;9.388;2022-10-16T08:15:35;1.20;;;0.77;;
19151;SDS011;9708;53.114;9.388;2022-10-16T08:18:03;1.25;;;0.80;;
19151;SDS011;9708;53.114;9.388;2022-10-16T08:20:31;0.98;;;0.70;;
19151;SDS011;9708;53.114;9.388;2022-10-16T08:23:00;0.60;;;0.60;;
19151;SDS011;9708;53.114;9.388;2022-10-16T08:25:27;0.73;;;0.70;;
19151;SDS011;9708;53.114;9.388;2022-10-16T08:27:54;0.85;;;0.85;;
19151;SDS011;9708;53.114;9.388;2022-10-16T08:30:22;1.15;;;0.80;;
19151;SDS011;9708;53.114;9.388;2022-10-16T08:32:49;0.63;;;0.63;;
19151;SDS011;9708;53.114;9.388;2022-10-16T08:35:16;0.60;;;0.60;;
19151;SDS011;9708;53.114;9.388;2022-10-16T08:37:43;2.25;;;1.30;;
19151;SDS011;9708;53.114;9.388;2022-10-16T08:40:15;1.63;;;0.82;;
19151;SDS011;9708;53.114;9.388;2022-10-16T08:42:47;0.68;;;0.68;;
19151;SDS011;9708;53.114;9.388;2022-10-16T08:45:29;0.68;;;0.68;;
19151;SDS011;9708;53.114;9.388;2022-10-16T08:48:06;0.60;;;0.60;;
19151;SDS011;9708;53.114;9.388;2022-10-16T08:50:40;0.82;;;0.82;;
19151;SDS011;9708;53.114;9.388;2022-10-16T08:53:09;0.75;;;0.75;;
19151;SDS011;9708;53.114;9.388;2022-10-16T08:55:42;0.52;;;0.50;;
19151;SDS011;9708;53.114;9.388;2022-10-16T08:58:12;0.73;;;0.60;;
19151;SDS011;9708;53.114;9.388;2022-10-16T09:00:41;0.57;;;0.50;;
19151;SDS011;9708;53.114;9.388;2022-10-16T09:03:13;0.55;;;0.55;;
19151;SDS011;9708;53.114;9.388;2022-10-16T09:05:52;0.93;;;0.60;;
19151;SDS011;9708;53.114;9.388;2022-10-16T09:08:29;0.70;;;0.70;;
19151;SDS011;9708;53.114;9.388;2022-10-16T09:11:05;0.57;;;0.57;;
19151;SDS011;9708;53.114;9.388;2022-10-16T09:13:40;0.50;;;0.50;;
19151;SDS011;9708;53.114;9.388;2022-10-16T09:16:15;1.13;;;1.02;;
19151;SDS011;9708;53.114;9.388;2022-10-16T09:18:48;0.60;;;0.60;;
19151;SDS011;9708;53.114;9.388;2022-10-16T09:21:21;0.52;;;0.52;;
19151;SDS011;9708;53.114;9.388;2022-10-16T09:23:51;0.40;;;0.40;;
19151;SDS011;9708;53.114;9.388;2022-10-16T09:26:21;0.60;;;0.60;;
19151;SDS011;9708;53.114;9.388;2022-10-16T09:28:47;0.98;;;0.70;;
19151;SDS011;9708;53.114;9.388;2022-10-16T09:31:18;2.72;;;0.93;;
19151;SDS011;9708;53.114;9.388;2022-10-16T09:33:47;0.50;;;0.50;;
19151;SDS011;9708;53.114;9.388;2022-10-16T09:36:18;0.57;;;0.57;;
19151;SDS011;9708;53.114;9.388;2022-10-16T09:38:46;0.60;;;0.60;;
19151;SDS011;9708;53.114;9.388;2022-10-16T09:41:15;0.50;;;0.50;;
19151;SDS011;9708;53.114;9.388;2022-10-16T09:43:49;1.30;;;0.50;;
19151;SDS011;9708;53.114;9.388;2022-10-16T09:46:27;0.40;;;0.40;;
19151;SDS011;9708;53.114;9.388;2022-10-16T09:48:56;0.60;;;0.60;;
19151;SDS011;9708;53.114;9.388;2022-10-16T09:51:25;1.35;;;0.73;;
19151;SDS011;9708;53.114;9.388;2022-10-16T09:53:57;1.48;;;0.80;;
19151;SDS011;9708;53.114;9.388;2022-10-16T09:56:26;3.60;;;1.13;;
19151;SDS011;9708;53.114;9.388;2022-10-16T09:58:55;0.57;;;0.55;;
19151;SDS011;9708;53.114;9.388;2022-10-16T10:01:26;0.40;;;0.40;;
19151;SDS011;9708;53.114;9.388;2022-10-16T10:03:56;1.58;;;0.93;;
19151;SDS011;9708;53.114;9.388;2022-10-16T10:06:28;0.57;;;0.57;;
19151;SDS011;9708;53.114;9.388;2022-10-16T10:09:04;1.65;;;1.55;;
19151;SDS011;9708;53.114;9.388;2022-10-16T10:11:40;0.50;;;0.50;;
19151;SDS011;9708;53.114;9.388;2022-10-16T10:17:11;0.40;;;0.40;;
19151;SDS011;9708;53.114;9.388;2022-10-16T10:19:40;0.40;;;0.40;;
19151;SDS011;9708;53.114;9.388;2022-10-16T10:22:16;0.50;;;0.50;;
19151;SDS011;9708;53.114;9.388;2022-10-16T10:24:53;0.40;;;0.40;;
19151;SDS011;9708;53.114;9.388;2022-10-16T10:27:21;0.57;;;0.57;;
19151;SDS011;9708;53.114;9.388;2022-10-16T10:29:57;0.40;;;0.40;;
19151;SDS011;9708;53.114;9.388;2022-10-16T10:32:31;0.40;;;0.40;;
19151;SDS011;9708;53.114;9.388;2022-10-16T10:35:08;0.90;;;0.90;;
19151;SDS011;9708;53.114;9.388;2022-10-16T10:37:49;0.60;;;0.60;;
19151;SDS011;9708;53.114;9.388;2022-10-16T10:40:35;0.90;;;0.70;;
19151;SDS011;9708;53.114;9.388;2022-10-16T10:43:14;0.80;;;0.50;;
19151;SDS011;9708;53.114;9.388;2022-10-16T10:45:54;0.60;;;0.60;;
19151;SDS011;9708;53.114;9.388;2022-10-16T10:48:27;0.70;;;0.50;;
19151;SDS011;9708;53.114;9.388;2022-10-16T10:51:14;0.77;;;0.50;;
19151;SDS011;9708;53.114;9.388;2022-10-16T10:53:47;0.40;;;0.40;;
19151;SDS011;9708;53.114;9.388;2022-10-16T10:56:25;0.50;;;0.50;;
19151;SDS011;9708;53.114;9.388;2022-10-16T11:02:15;0.77;;;0.57;;
19151;SDS011;9708;53.114;9.388;2022-10-16T11:04:52;1.33;;;1.08;;
19151;SDS011;9708;53.114;9.388;2022-10-16T11:07:30;1.08;;;0.95;;
19151;SDS011;9708;53.114;9.388;2022-10-16T11:10:02;0.50;;;0.50;;
19151;SDS011;9708;53.114;9.388;2022-10-16T11:12:31;0.47;;;0.47;;
19151;SDS011;9708;53.114;9.388;2022-10-16T11:15:03;0.30;;;0.30;;
19151;SDS011;9708;53.114;9.388;2022-10-16T11:17:39;0.50;;;0.50;;
19151;SDS011;9708;53.114;9.388;2022-10-16T11:20:12;0.90;;;0.90;;
19151;SDS011;9708;53.114;9.388;2022-10-16T11:22:43;0.47;;;0.47;;
19151;SDS011;9708;53.114;9.388;2022-10-16T11:25:16;0.40;;;0.40;;
19151;SDS011;9708;53.114;9.388;2022-10-16T11:27:47;1.55;;;0.90;;
19151;SDS011;9708;53.114;9.388;2022-10-16T11:30:18;0.50;;;0.50;;
19151;SDS011;9708;53.114;9.388;2022-10-16T11:33:02;0.45;;;0.40;;
19151;SDS011;9708;53.114;9.388;2022-10-16T11:35:40;1.02;;;0.45;;
19151;SDS011;9708;53.114;9.388;2022-10-16T11:38:12;0.40;;;0.40;;
19151;SDS011;9708;53.114;9.388;2022-10-16T11:40:47;3.17;;;1.25;;
19151;SDS011;9708;53.114;9.388;2022-10-16T11:43:21;0.40;;;0.40;;
19151;SDS011;9708;53.114;9.388;2022-10-16T11:45:51;1.55;;;0.40;;
19151;SDS011;9708;53.114;9.388;2022-10-16T11:48:24;0.60;;;0.40;;
19151;SDS011;9708;53.114;9.388;2022-10-16T11:50:56;0.57;;;0.40;;
19151;SDS011;9708;53.114;9.388;2022-10-16T11:53:34;0.60;;;0.60;;
19151;SDS011;9708;53.114;9.388;2022-10-16T11:56:08;0.55;;;0.50;;
19151;SDS011;9708;53.114;9.388;2022-10-16T11:58:40;0.40;;;0.40;;
19151;SDS011;9708;53.114;9.388;2022-10-16T12:01:16;0.47;;;0.47;;
19151;SDS011;9708;53.114;9.388;2022-10-16T12:03:52;0.30;;;0.30;;
19151;SDS011;9708;53.114;9.388;2022-10-16T12:06:30;0.40;;;0.40;;
19151;SDS011;9708;53.114;9.388;2022-10-16T12:09:01;0.35;;;0.35;;
19151;SDS011;9708;53.114;9.388;2022-10-16T12:11:33;0.45;;;0.45;;
19151;SDS011;9708;53.114;9.388;2022-10-16T12:14:06;0.40;;;0.40;;
19151;SDS011;9708;53.114;9.388;2022-10-16T12:16:50;0.30;;;0.30;;
19151;SDS011;9708;53.114;9.388;2022-10-16T12:19:20;0.40;;;0.40;;
19151;SDS011;9708;53.114;9.388;2022-10-16T12:21:47;1.00;;;0.60;;
19151;SDS011;9708;53.114;9.388;2022-10-16T12:24:27;0.40;;;0.40;;
19151;SDS011;9708;53.114;9.388;2022-10-16T12:26:58;0.50;;;0.50;;
19151;SDS011;9708;53.114;9.388;2022-10-16T12:29:30;1.10;;;0.50;;
19151;SDS011;9708;53.114;9.388;2022-10-16T12:31:59;0.60;;;0.57;;
19151;SDS011;9708;53.114;9.388;2022-10-16T12:34:29;0.70;;;0.38;;
19151;SDS011;9708;53.114;9.388;2022-10-16T12:37:11;0.80;;;0.73;;
19151;SDS011;9708;53.114;9.388;2022-10-16T12:39:40;0.50;;;0.50;;
19151;SDS011;9708;53.114;9.388;2022-10-16T12:42:19;1.38;;;0.55;;
19151;SDS011;9708;53.114;9.388;2022-10-16T12:44:48;3.13;;;0.63;;
19151;SDS011;9708;53.114;9.388;2022-10-16T12:47:19;0.70;;;0.30;;
19151;SDS011;9708;53.114;9.388;2022-10-16T12:49:49;0.47;;;0.47;;
19151;SDS011;9708;53.114;9.388;2022-10-16T12:52:25;0.68;;;0.68;;
19151;SDS011;9708;53.114;9.388;2022-10-16T12:54:55;0.63;;;0.63;;
19151;SDS011;9708;53.114;9.388;2022-10-16T12:57:33;0.30;;;0.30;;
19151;SDS011;9708;53.114;9.388;2022-10-16T13:00:10;0.45;;;0.40;;
19151;SDS011;9708;53.114;9.388;2022-10-16T13:02:47;0.43;;;0.43;;
19151;SDS011;9708;53.114;9.388;2022-10-16T13:05:47;1.55;;;0.30;;
19151;SDS011;9708;53.114;9.388;2022-10-16T13:08:32;1.55;;;0.40;;
19151;SDS011;9708;53.114;9.388;2022-10-16T13:11:11;0.52;;;0.40;;
19151;SDS011;9708;53.114;9.388;2022-10-16T13:13:53;1.25;;;1.23;;
19151;SDS011;9708;53.114;9.388;2022-10-16T13:16:38;1.45;;;0.50;;
19151;SDS011;9708;53.114;9.388;2022-10-16T13:19:18;0.93;;;0.70;;
19151;SDS011;9708;53.114;9.388;2022-10-16T13:21:55;0.35;;;0.35;;
19151;SDS011;9708;53.114;9.388;2022-10-16T13:24:36;0.60;;;0.60;;
19151;SDS011;9708;53.114;9.388;2022-10-16T13:27:15;1.05;;;0.60;;
19151;SDS011;9708;53.114;9.388;2022-10-16T13:29:52;0.40;;;0.40;;
19151;SDS011;9708;53.114;9.388;2022-10-16T13:32:26;0.77;;;0.50;;
19151;SDS011;9708;53.114;9.388;2022-10-16T13:34:53;1.25;;;0.60;;
19151;SDS011;9708;53.114;9.388;2022-10-16T13:37:22;0.80;;;0.50;;
19151;SDS011;9708;53.114;9.388;2022-10-16T13:40:01;0.85;;;0.60;;
19151;SDS011;9708;53.114;9.388;2022-10-16T13:42:33;1.50;;;0.70;;
19151;SDS011;9708;53.114;9.388;2022-10-16T13:45:00;0.43;;;0.43;;
19151;SDS011;9708;53.114;9.388;2022-10-16T13:47:28;0.50;;;0.50;;
19151;SDS011;9708;53.114;9.388;2022-10-16T13:49:59;2.47;;;0.50;;
19151;SDS011;9708;53.114;9.388;2022-10-16T13:52:27;0.98;;;0.40;;
19151;SDS011;9708;53.114;9.388;2022-10-16T13:54:54;0.50;;;0.50;;
19151;SDS011;9708;53.114;9.388;2022-10-16T13:57:22;0.52;;;0.52;;
19151;SDS011;9708;53.114;9.388;2022-10-16T13:59:49;0.65;;;0.40;;
19151;SDS011;9708;53.114;9.388;2022-10-16T14:02:19;0.50;;;0.50;;
19151;SDS011;9708;53.114;9.388;2022-10-16T14:04:48;0.63;;;0.63;;
19151;SDS011;9708;53.114;9.388;2022-10-16T14:07:18;1.20;;;0.80;;
19151;SDS011;9708;53.114;9.388;2022-10-16T14:09:50;1.45;;;0.45;;
19151;SDS011;9708;53.114;9.388;2022-10-16T14:12:18;0.90;;;0.40;;
19151;SDS011;9708;53.114;9.388;2022-10-16T14:14:45;0.85;;;0.55;;
19151;SDS011;9708;53.114;9.388;2022-10-16T14:17:14;1.70;;;1.48;;
19151;SDS011;9708;53.114;9.388;2022-10-16T14:19:44;0.40;;;0.40;;
19151;SDS011;9708;53.114;9.388;2022-10-16T14:22:21;1.05;;;0.98;;
19151;SDS011;9708;53.114;9.388;2022-10-16T14:24:57;0.40;;;0.40;;
19151;SDS011;9708;53.114;9.388;2022-10-16T14:27:26;0.82;;;0.30;;
19151;SDS011;9708;53.114;9.388;2022-10-16T14:30:08;1.80;;;0.50;;
19151;SDS011;9708;53.114;9.388;2022-10-16T14:32:40;2.30;;;1.50;;
19151;SDS011;9708;53.114;9.388;2022-10-16T14:35:11;0.77;;;0.77;;
19151;SDS011;9708;53.114;9.388;2022-10-16T14:37:53;0.85;;;0.68;;
19151;SDS011;9708;53.114;9.388;2022-10-16T14:40:22;0.60;;;0.60;;
19151;SDS011;9708;53.114;9.388;2022-10-16T14:42:52;0.60;;;0.40;;
19151;SDS011;9708;53.114;9.388;2022-10-16T14:45:20;0.30;;;0.30;;
19151;SDS011;9708;53.114;9.388;2022-10-16T14:47:49;2.20;;;0.82;;
19151;SDS011;9708;53.114;9.388;2022-10-16T14:50:18;0.52;;;0.50;;
19151;SDS011;9708;53.114;9.388;2022-10-16T14:52:45;0.65;;;0.50;;
19151;SDS011;9708;53.114;9.388;2022-10-16T14:55:12;0.63;;;0.38;;
19151;SDS011;9708;53.114;9.388;2022-10-16T14:57:40;0.70;;;0.70;;
19151;SDS011;9708;53.114;9.388;2022-10-16T15:00:10;0.63;;;0.63;;
19151;SDS011;9708;53.114;9.388;2022-10-16T15:02:41;2.05;;;0.52;;
19151;SDS011;9708;53.114;9.388;2022-10-16T15:05:14;0.50;;;0.50;;
19151;SDS011;9708;53.114;9.388;2022-10-16T15:07:42;0.45;;;0.45;;
19151;SDS011;9708;53.114;9.388;2022-10-16T15:10:10;0.40;;;0.40;;
19151;SDS011;9708;53.114;9.388;2022-10-16T15:12:37;0.63;;;0.50;;
19151;SDS011;9708;53.114;9.388;2022-10-16T15:17:54;1.50;;;0.80;;
19151;SDS011;9708;53.114;9.388;2022-10-16T15:20:22;0.75;;;0.70;;
19151;SDS011;9708;53.114;9.388;2022-10-16T15:22:49;0.95;;;0.50;;
19151;SDS011;9708;53.114;9.388;2022-10-16T15:25:25;1.17;;;0.50;;
19151;SDS011;9708;53.114;9.388;2022-10-16T15:27:57;0.40;;;0.40;;
19151;SDS011;9708;53.114;9.388;2022-10-16T15:30:26;8.98;;;2.33;;
19151;SDS011;9708;53.114;9.388;2022-10-16T15:32:53;1.55;;;1.15;;
19151;SDS011;9708;53.114;9.388;2022-10-16T15:35:20;0.45;;;0.45;;
19151;SDS011;9708;53.114;9.388;2022-10-16T15:37:47;0.85;;;0.85;;
19151;SDS011;9708;53.114;9.388;2022-10-16T15:40:15;0.50;;;0.50;;
19151;SDS011;9708;53.114;9.388;2022-10-16T15:42:43;0.50;;;0.50;;
19151;SDS011;9708;53.114;9.388;2022-10-16T15:45:10;2.40;;;0.55;;
19151;SDS011;9708;53.114;9.388;2022-10-16T15:47:39;0.50;;;0.50;;
19151;SDS011;9708;53.114;9.388;2022-10-16T15:50:08;0.75;;;0.75;;
19151;SDS011;9708;53.114;9.388;2022-10-16T15:52:36;0.50;;;0.50;;
19151;SDS011;9708;53.114;9.388;2022-10-16T15:55:04;0.75;;;0.52;;
19151;SDS011;9708;53.114;9.388;2022-10-16T15:57:31;1.60;;;0.52;;
19151;SDS011;9708;53.114;9.388;2022-10-16T15:59:58;1.85;;;0.85;;
19151;SDS011;9708;53.114;9.388;2022-10-16T16:02:25;7.90;;;2.55;;
19151;SDS011;9708;53.114;9.388;2022-10-16T16:04:53;0.95;;;0.82;;
19151;SDS011;9708;53.114;9.388;2022-10-16T16:07:19;0.90;;;0.60;;
19151;SDS011;9708;53.114;9.388;2022-10-16T16:09:46;2.50;;;1.08;;
19151;SDS011;9708;53.114;9.388;2022-10-16T16:12:13;1.38;;;0.70;;
19151;SDS011;9708;53.114;9.388;2022-10-16T16:14:40;0.77;;;0.57;;
19151;SDS011;9708;53.114;9.388;2022-10-16T16:17:07;1.17;;;0.50;;
19151;SDS011;9708;53.114;9.388;2022-10-16T16:19:34;0.50;;;0.50;;
19151;SDS011;9708;53.114;9.388;2022-10-16T16:22:02;0.63;;;0.60;;
19151;SDS011;9708;53.114;9.388;2022-10-16T16:24:29;0.43;;;0.43;;
19151;SDS011;9708;53.114;9.388;2022-10-16T16:26:56;0.65;;;0.65;;
19151;SDS011;9708;53.114;9.388;2022-10-16T16:29:22;0.88;;;0.52;;
19151;SDS011;9708;53.114;9.388;2022-10-16T16:31:49;0.50;;;0.50;;
19151;SDS011;9708;53.114;9.388;2022-10-16T16:34:22;0.80;;;0.65;;
19151;SDS011;9708;53.114;9.388;2022-10-16T16:36:49;2.55;;;1.00;;
19151;SDS011;9708;53.114;9.388;2022-10-16T16:39:17;4.88;;;1.75;;
19151;SDS011;9708;53.114;9.388;2022-10-16T16:41:45;2.88;;;1.27;;
19151;SDS011;9708;53.114;9.388;2022-10-16T16:44:12;2.37;;;1.10;;
19151;SDS011;9708;53.114;9.388;2022-10-16T16:46:40;2.23;;;1.40;;
19151;SDS011;9708;53.114;9.388;2022-10-16T16:49:08;5.10;;;2.40;;
19151;SDS011;9708;53.114;9.388;2022-10-16T16:51:36;6.77;;;3.63;;
19151;SDS011;9708;53.114;9.388;2022-10-16T16:54:03;6.50;;;3.43;;
19151;SDS011;9708;53.114;9.388;2022-10-16T16:56:31;6.27;;;2.07;;
19151;SDS011;9708;53.114;9.388;2022-10-16T16:58:58;5.70;;;2.03;;
19151;SDS011;9708;53.114;9.388;2022-10-16T17:01:25;2.13;;;1.07;;
19151;SDS011;9708;53.114;9.388;2022-10-16T17:03:53;1.67;;;1.13;;
19151;SDS011;9708;53.114;9.388;2022-10-16T17:06:25;1.23;;;0.70;;
19151;SDS011;9708;53.114;9.388;2022-10-16T17:08:54;2.10;;;0.80;;
19151;SDS011;9708;53.114;9.388;2022-10-16T17:11:22;0.70;;;0.70;;
19151;SDS011;9708;53.114;9.388;2022-10-16T17:13:52;1.17;;;0.90;;
19151;SDS011;9708;53.114;9.388;2022-10-16T17:16:23;0.87;;;0.80;;
19151;SDS011;9708;53.114;9.388;2022-10-16T17:18:51;0.70;;;0.67;;
19151;SDS011;9708;53.114;9.388;2022-10-16T17:21:18;1.50;;;1.20;;
19151;SDS011;9708;53.114;9.388;2022-10-16T17:23:45;2.70;;;2.20;;
19151;SDS011;9708;53.114;9.388;2022-10-16T17:26:13;2.77;;;2.43;;
19151;SDS011;9708;53.114;9.388;2022-10-16T17:28:41;5.37;;;2.57;;
19151;SDS011;9708;53.114;9.388;2022-10-16T17:31:10;6.83;;;3.13;;
19151;SDS011;9708;53.114;9.388;2022-10-16T17:33:38;4.47;;;3.60;;
19151;SDS011;9708;53.114;9.388;2022-10-16T17:36:06;3.03;;;1.57;;
19151;SDS011;9708;53.114;9.388;2022-10-16T17:38:33;2.90;;;1.33;;
19151;SDS011;9708;53.114;9.388;2022-10-16T17:41:09;2.33;;;1.37;;
19151;SDS011;9708;53.114;9.388;2022-10-16T17:43:37;2.30;;;1.40;;
19151;SDS011;9708;53.114;9.388;2022-10-16T17:46:04;2.00;;;1.70;;
19151;SDS011;9708;53.114;9.388;2022-10-16T17:48:35;5.50;;;1.77;;
19151;SDS011;9708;53.114;9.388;2022-10-16T17:51:03;1.47;;;1.37;;
19151;SDS011;9708;53.114;9.388;2022-10-16T17:53:30;2.50;;;1.77;;
19151;SDS011;9708;53.114;9.388;2022-10-16T17:56:00;3.30;;;1.50;;
19151;SDS011;9708;53.114;9.388;2022-10-16T17:58:28;1.80;;;1.47;;
19151;SDS011;9708;53.114;9.388;2022-10-16T18:00:55;1.80;;;1.50;;
19151;SDS011;9708;53.114;9.388;2022-10-16T18:03:22;2.27;;;1.50;;
19151;SDS011;9708;53.114;9.388;2022-10-16T18:05:52;1.83;;;1.70;;
19151;SDS011;9708;53.114;9.388;2022-10-16T18:08:19;2.13;;;1.43;;
19151;SDS011;9708;53.114;9.388;2022-10-16T18:10:46;2.87;;;1.97;;
19151;SDS011;9708;53.114;9.388;2022-10-16T18:13:13;1.53;;;1.10;;
19151;SDS011;9708;53.114;9.388;2022-10-16T18:15:41;1.13;;;1.10;;
19151;SDS011;9708;53.114;9.388;2022-10-16T18:18:08;2.07;;;1.50;;
19151;SDS011;9708;53.114;9.388;2022-10-16T18:20:35;1.20;;;1.20;;
19151;SDS011;9708;53.114;9.388;2022-10-16T18:23:03;1.60;;;1.00;;
19151;SDS011;9708;53.114;9.388;2022-10-16T18:25:29;1.50;;;1.37;;
19151;SDS011;9708;53.114;9.388;2022-10-16T18:27:56;2.37;;;1.77;;
19151;SDS011;9708;53.114;9.388;2022-10-16T18:30:23;2.00;;;1.10;;
19151;SDS011;9708;53.114;9.388;2022-10-16T18:32:50;0.90;;;0.90;;
19151;SDS011;9708;53.114;9.388;2022-10-16T18:35:17;1.23;;;1.13;;
19151;SDS011;9708;53.114;9.388;2022-10-16T18:37:44;1.00;;;1.00;;
19151;SDS011;9708;53.114;9.388;2022-10-16T18:40:12;2.33;;;1.73;;
19151;SDS011;9708;53.114;9.388;2022-10-16T18:42:39;3.33;;;1.67;;
19151;SDS011;9708;53.114;9.388;2022-10-16T18:45:06;1.97;;;1.60;;
19151;SDS011;9708;53.114;9.388;2022-10-16T18:47:34;1.50;;;1.40;;
19151;SDS011;9708;53.114;9.388;2022-10-16T18:50:00;2.63;;;1.10;;
19151;SDS011;9708;53.114;9.388;2022-10-16T18:52:27;2.97;;;1.47;;
19151;SDS011;9708;53.114;9.388;2022-10-16T18:54:56;2.73;;;1.50;;
19151;SDS011;9708;53.114;9.388;2022-10-16T18:57:24;1.53;;;1.20;;
19151;SDS011;9708;53.114;9.388;2022-10-16T18:59:53;2.27;;;1.10;;
19151;SDS011;9708;53.114;9.388;2022-10-16T19:02:20;4.17;;;2.87;;
19151;SDS011;9708;53.114;9.388;2022-10-16T19:04:47;2.33;;;1.97;;
19151;SDS011;9708;53.114;9.388;2022-10-16T19:07:14;2.83;;;1.43;;
19151;SDS011;9708;53.114;9.388;2022-10-16T19:09:41;3.13;;;2.27;;
19151;SDS011;9708;53.114;9.388;2022-10-16T19:12:08;2.00;;;1.80;;